Flight Track Log - Related Links

Times and Time Zones

All times are in EDT time to prevent confusion due to time zone crossing. See the UAL6057 flight status page for this flight to view local times or setup timezone preferences in your user account.

Time Position Orientation Groundspeed Altitude Reporting Facility
EDT Latitude Longitude Course Direction KTS MPH feet Rate Location/Type
Fri 12:14:50 AM 41.8781 -87.9061 180° South 226 260 3,600  Level Chicago Center
Fri 12:15:52 AM 41.7992 -87.8969 175° South 274 315 5,600 2,195 Climbing Chicago Center
Fri 12:16:53 AM 41.7178 -87.8933 178° South 292 336 8,100 2,311 Climbing Chicago Center
Fri 12:17:00 AM 41.5479 -87.8082 176° South  Level Estimated
Fri 12:17:54 AM 41.6358 -87.8889 178° South 296 341 10,300  Level Chicago Center
Fri 12:18:00 AM 41.4425 -87.8499 197° South  Level FlightAware Approximate
Fri 12:18:55 AM 41.5486 -87.8847 178° South 309 356 12,000  Level Chicago Center
Fri 12:19:00 AM 41.3342 -87.8242 186° South  Level Estimated
Fri 12:19:56 AM 41.4361 -87.8800 178° South 332 382 13,800  Level Chicago Center
Fri 12:20:00 AM 41.2259 -87.7986 180° South  Level Estimated
Fri 12:20:57 AM 41.3350 -87.8686 175° South 357 411 14,900  Level Chicago Center
Fri 12:21:59 AM 41.2283 -87.8492 172° South 379 436 15,900 1,024 Climbing Chicago Center
Fri 12:23:00 AM 41.1200 -87.8281 172° South 391 450 17,000 1,131 Climbing Chicago Center
Fri 12:24:01 AM 41.0111 -87.8083 172° South 395 455 18,200 1,131 Climbing Chicago Center
Fri 12:25:02 AM 40.9000 -87.7883 172° South 403 464 19,300 1,033 Climbing Chicago Center
Fri 12:26:03 AM 40.7881 -87.7681 172° South 409 471 20,300 984 Climbing Chicago Center
Fri 12:27:04 AM 40.6733 -87.7464 172° South 416 479 21,300 1,033 Climbing Chicago Center
Fri 12:28:05 AM 40.5578 -87.7256 172° South 421 484 22,400 1,033 Climbing Chicago Center
Fri 12:29:06 AM 40.4403 -87.7053 173° South 425 489 23,400 1,033 Climbing Chicago Center
Fri 12:30:07 AM 40.3228 -87.6847 172° South 427 491 24,500 1,122 Climbing Chicago Center
Fri 12:31:09 AM 40.1800 -87.6592 172° South 432 497 25,700 1,073 Climbing Chicago Center
Fri 12:32:10 AM 40.0669 -87.6414 173° South 436 502 26,700 939 Climbing Chicago Center
Fri 12:33:04 AM 39.9686 -87.6244 172° South 435 501 27,500 1,096 Climbing Indianapolis Center
Fri 12:34:05 AM 39.8233 -87.5986 172° South 438 504 28,800 1,131 Climbing Indianapolis Center
Fri 12:35:06 AM 39.7036 -87.5786 173° South 438 504 29,800 1,033 Climbing Indianapolis Center
Fri 12:36:07 AM 39.5831 -87.5578 172° South 440 506 30,900 1,082 Climbing Indianapolis Center
Fri 12:37:08 AM 39.4619 -87.5369 172° South 440 506 32,000 1,131 Climbing Indianapolis Center
Fri 12:38:09 AM 39.3419 -87.5156 172° South 439 505 33,200 1,180 Climbing Indianapolis Center
Fri 12:39:10 AM 39.2233 -87.4964 173° South 434 499 34,400 885 Climbing Indianapolis Center
Fri 12:40:11 AM 39.0908 -87.4725 172° South 434 499 35,000 295 Climbing Indianapolis Center
Fri 12:41:12 AM 38.9628 -87.4517 173° South 458 527 35,000  Level Indianapolis Center
Fri 12:42:13 AM 38.8283 -87.4281 172° South 482 555 35,000  Level Indianapolis Center
Fri 12:43:14 AM 38.6939 -87.4058 173° South 486 559 35,000  Level Indianapolis Center
Fri 12:44:15 AM 38.5603 -87.3847 173° South 485 558 35,000 -639 Level Indianapolis Center
Fri 12:45:16 AM 38.4275 -87.3625 173° South 484 557 33,700 -1,328 Descending Indianapolis Center
Fri 12:46:17 AM 38.2978 -87.3411 173° South 477 549 32,300 -1,328 Descending Indianapolis Center
Fri 12:47:18 AM 38.1667 -87.3189 172° South 481 554 31,000 -639 Descending Indianapolis Center
Fri 12:48:19 AM 38.0350 -87.2964 172° South 481 554 31,000  Level Indianapolis Center
Fri 12:49:20 AM 37.8789 -87.2700 172° South 473 544 31,000 -344 Level Indianapolis Center
Fri 12:50:21 AM 37.7689 -87.2525 173° South 470 541 30,300 -1,672 Descending Indianapolis Center
Fri 12:51:22 AM 37.6142 -87.2256 172° South 475 547 27,600 -2,459 Descending Indianapolis Center
Fri 12:52:23 AM 37.4819 -87.2081 174° South 474 545 25,300 -2,231 Descending Indianapolis Center
Fri 12:53:23 AM 37.3478 -87.1858 172° South 480 552 23,100 -1,140 Descending Indianapolis Center
Fri 12:54:24 AM 37.2164 -87.1650 173° South 472 543 23,000 -49 Descending Indianapolis Center
Fri 12:55:25 AM 37.0853 -87.1436 173° South 472 543 23,000 -541 Level Indianapolis Center
Fri 12:56:26 AM 36.9597 -87.0939 162° South 469 540 21,900 -1,623 Descending Indianapolis Center
Fri 12:57:27 AM 36.8394 -87.0322 158° South 461 531 19,700 -2,262 Descending Indianapolis Center
Fri 12:58:28 AM 36.7300 -86.9778 158° South 423 487 17,300 -2,430 Descending Indianapolis Center
Fri 12:59:28 AM 36.6261 -86.9253 158° South 403 464 14,800 -2,479 Descending Indianapolis Center
Fri 01:00:29 AM 36.5231 -86.8744 158° South 395 455 12,300 -1,985 Descending Indianapolis Center
Fri 01:01:38 AM 36.4225 -86.8058 151° Southeast 385 443 10,500 -1,349 Descending Memphis Center
Fri 01:02:38 AM 36.3417 -86.7475 150° Southeast 365 420 9,400 -1,250 Descending Memphis Center
Fri 01:03:38 AM 36.2753 -86.6911 146° Southeast 315 362 8,000 -1,650 Descending Memphis Center
Fri 01:04:38 AM 36.2186 -86.6114 131° Southeast 279 321 6,100 -1,550 Descending Memphis Center
Fri 01:05:38 AM 36.1772 -86.5489 129° Southeast 252 290 4,900 -650 Descending Memphis Center
Fri 01:06:38 AM 36.1400 -86.4942 130° Southeast 222 255 4,800 -700 Descending Memphis Center
Fri 01:07:38 AM 36.0969 -86.4475 139° Southeast 210 242 3,500 -1,100 Descending Memphis Center
Fri 01:08:38 AM 36.0481 -86.4883 214° Southwest 171 197 2,600 -450 Descending Memphis Center
Fri 01:09:38 AM 36.0311 -86.5456 250° West 176 203 2,600 -250 Level Memphis Center
Fri 01:10:38 AM 36.0617 -86.5928 309° West 138 159 2,100 -600 Descending Memphis Center
Fri 01:11:38 AM 36.0878 -86.6275 313° West 138 159 1,400 -650 Descending Memphis Center
Fri 01:12:38 AM 36.1139 -86.6597 315° West 133 153 800 -600 Descending Memphis Center
Fri 01:14:00 AM 36.1167 -86.6667 90° East  Level FlightAware Approximate
Fri 01:21:00 AM 36.1245 -86.6782 90° East  Level Estimated
Fri 01:22:00 AM 36.1245 -86.6782 90° East  Level Estimated
Fri 01:23:00 AM 36.1245 -86.6782 90° East  Level Estimated
Fri 01:24:00 AM 36.1245 -86.6782 90° East  Level Estimated
Fri 01:25:00 AM 36.1245 -86.6782 90° East  Level Estimated

Login

Don't have an account? Register now (free) for customized features, flight alerts, and more!